createdAt,value
2023-03-23T00:00:46.260Z,19.4
2023-03-23T00:20:52.573Z,19.3
2023-03-23T00:40:50.605Z,19.2
2023-03-23T01:00:51.562Z,19.1
2023-03-23T01:20:46.652Z,19.1
2023-03-23T01:40:47.172Z,19
2023-03-23T02:00:46.682Z,18.9
2023-03-23T02:20:45.829Z,18.9
2023-03-23T02:40:45.742Z,18.8
2023-03-23T03:00:46.556Z,18.7
2023-03-23T03:20:49.448Z,18.7
2023-03-23T03:40:49.853Z,18.7
2023-03-23T04:00:47.731Z,18.6
2023-03-23T04:20:46.003Z,18.6
2023-03-23T04:40:46.235Z,18.5
2023-03-23T05:01:06.178Z,18.5
2023-03-23T05:20:46.724Z,18.5
2023-03-23T05:41:15.150Z,18.8
2023-03-23T06:01:17.665Z,18.9
2023-03-23T06:21:12.116Z,18.9
2023-03-23T06:41:13.160Z,18.8
2023-03-23T07:01:12.425Z,19.1
2023-03-23T07:21:11.130Z,19.1
2023-03-23T07:41:11.006Z,19.1
2023-03-23T08:01:12.722Z,19.2
2023-03-23T08:21:16.609Z,19.3
2023-03-23T08:41:11.156Z,19.3
2023-03-23T09:01:17.007Z,19.3
2023-03-23T09:21:18.872Z,19.4
2023-03-23T09:41:11.842Z,19.4
2023-03-23T10:01:11.178Z,19.6
2023-03-23T10:21:12.367Z,19.7
2023-03-23T10:41:18.120Z,19.8
2023-03-23T11:01:17.607Z,19.9
2023-03-23T11:21:14.876Z,19.9
2023-03-23T11:41:11.602Z,19.9
2023-03-23T12:01:19.109Z,20
2023-03-23T12:21:12.520Z,20
2023-03-23T12:41:11.358Z,20
2023-03-23T13:01:16.356Z,19.9
2023-03-23T13:21:17.636Z,19.9
2023-03-23T13:41:10.676Z,19.9
2023-03-23T14:01:10.220Z,20
2023-03-23T14:21:11.885Z,20
2023-03-23T14:41:10.760Z,20
2023-03-23T15:01:16.993Z,20.1
2023-03-23T15:21:14.275Z,20.1
2023-03-23T15:41:12.501Z,20
2023-03-23T16:01:16.905Z,20.2
2023-03-23T16:21:17.152Z,20.2
2023-03-23T16:41:10.391Z,20.1
2023-03-23T17:01:12.318Z,20.1
2023-03-23T17:21:16.936Z,20
2023-03-23T17:41:11.147Z,20
2023-03-23T18:00:49.346Z,20.1
2023-03-23T18:20:48.441Z,20
2023-03-23T18:40:45.785Z,20
2023-03-23T19:00:46.035Z,20
2023-03-23T19:21:31.897Z,20
2023-03-23T19:40:51.748Z,20
2023-03-23T20:00:46.293Z,20
2023-03-23T20:20:45.594Z,20.1
2023-03-23T20:40:45.297Z,20.2
2023-03-23T21:00:45.718Z,20.2
2023-03-23T21:20:46.710Z,20.3
2023-03-23T21:40:49.321Z,20.1
2023-03-23T22:00:46.245Z,20.1
2023-03-23T22:20:45.629Z,20
2023-03-23T22:40:45.616Z,19.9
2023-03-23T23:00:53.928Z,19.8
2023-03-23T23:20:45.518Z,19.7
2023-03-23T23:40:50.862Z,19.7
